createdAt,value
2018-04-17T00:01:10.984Z,8.65
2018-04-17T00:04:16.817Z,8.64
2018-04-17T00:07:22.821Z,8.58
2018-04-17T00:10:28.252Z,8.52
2018-04-17T00:13:33.169Z,8.49
2018-04-17T00:16:39.050Z,8.45
2018-04-17T00:19:44.250Z,8.44
2018-04-17T00:22:49.213Z,8.43
2018-04-17T00:25:54.416Z,8.40
2018-04-17T00:29:00.032Z,8.34
2018-04-17T00:32:05.205Z,8.32
2018-04-17T00:35:11.815Z,8.24
2018-04-17T00:38:16.774Z,8.22
2018-04-17T00:41:22.161Z,8.18
2018-04-17T00:44:27.079Z,8.12
2018-04-17T00:47:33.119Z,8.10
2018-04-17T00:50:38.033Z,8.07
2018-04-17T00:54:08.924Z,8.04
2018-04-17T00:57:14.575Z,7.99
2018-04-17T01:00:20.378Z,7.94
2018-04-17T01:03:26.405Z,7.91
2018-04-17T01:06:31.794Z,7.83
2018-04-17T01:09:37.924Z,7.81
2018-04-17T01:12:42.837Z,7.79
2018-04-17T01:15:48.637Z,7.76
2018-04-17T01:18:53.825Z,7.68
2018-04-17T01:21:59.455Z,7.65
2018-04-17T01:25:04.317Z,7.61
2018-04-17T01:28:09.504Z,7.57
2018-04-17T01:31:15.641Z,7.52
2018-04-17T01:34:20.837Z,7.43
2018-04-17T01:37:26.456Z,7.40
2018-04-17T01:40:32.301Z,7.33
2018-04-17T01:43:38.304Z,7.29
2018-04-17T01:46:44.429Z,7.30
2018-04-17T01:49:50.552Z,7.21
2018-04-17T01:52:56.454Z,7.19
2018-04-17T01:56:02.570Z,7.14
2018-04-17T01:59:07.778Z,7.10
2018-04-17T02:02:13.495Z,7.07
2018-04-17T02:05:19.770Z,7.00
2018-04-17T02:08:24.978Z,6.96
2018-04-17T02:11:30.202Z,6.96
2018-04-17T02:14:35.128Z,6.86
2018-04-17T02:17:42.181Z,6.81
2018-04-17T02:20:48.316Z,6.80
2018-04-17T02:23:54.399Z,6.73
2018-04-17T02:27:00.253Z,6.72
2018-04-17T02:30:07.083Z,6.71
2018-04-17T02:33:12.525Z,6.68
2018-04-17T02:36:18.841Z,6.54
2018-04-17T02:39:24.687Z,6.59
2018-04-17T02:42:30.894Z,6.56
2018-04-17T02:45:36.905Z,6.53
2018-04-17T02:48:42.106Z,6.43
2018-04-17T02:51:48.222Z,6.39
2018-04-17T02:54:53.873Z,6.38
2018-04-17T02:57:59.080Z,6.35
2018-04-17T03:01:04.461Z,6.29
2018-04-17T03:04:09.668Z,6.25
2018-04-17T03:07:16.209Z,6.21
2018-04-17T03:10:21.816Z,6.18
2018-04-17T03:13:27.034Z,6.13
2018-04-17T03:16:33.033Z,6.08
2018-04-17T03:19:39.159Z,6.09
2018-04-17T03:22:45.265Z,6.07
2018-04-17T03:25:51.229Z,5.99
2018-04-17T03:28:56.593Z,6.00
2018-04-17T03:32:02.717Z,5.94
2018-04-17T03:35:08.837Z,5.90
2018-04-17T03:38:14.985Z,5.90
2018-04-17T03:41:19.906Z,5.85
2018-04-17T03:44:25.097Z,5.81
2018-04-17T03:47:31.230Z,5.78
2018-04-17T03:50:36.821Z,5.77
2018-04-17T03:53:42.848Z,5.74
2018-04-17T03:56:48.066Z,5.76
2018-04-17T03:59:53.257Z,5.72
2018-04-17T04:02:58.458Z,5.69
2018-04-17T04:06:03.649Z,5.68
2018-04-17T04:09:09.813Z,5.68
2018-04-17T04:12:15.018Z,5.58
2018-04-17T04:15:21.153Z,5.54
2018-04-17T04:18:37.810Z,5.54
2018-04-17T04:21:54.509Z,5.53
2018-04-17T04:25:16.273Z,5.50
2018-04-17T04:28:22.333Z,5.48
2018-04-17T04:31:27.925Z,5.45
2018-04-17T04:34:33.261Z,5.35
2018-04-17T04:37:39.399Z,5.33
2018-04-17T04:40:44.787Z,5.36
2018-04-17T04:43:49.978Z,5.29
2018-04-17T04:46:55.921Z,5.29
2018-04-17T04:50:01.782Z,5.33
2018-04-17T04:53:07.884Z,5.32
2018-04-17T04:56:13.914Z,5.29
2018-04-17T04:59:20.038Z,5.22
2018-04-17T05:02:26.149Z,5.27
2018-04-17T05:05:31.529Z,5.27
2018-04-17T05:08:36.718Z,5.23
2018-04-17T05:11:42.845Z,5.18
2018-04-17T05:14:48.744Z,5.15
2018-04-17T05:17:53.957Z,5.18
2018-04-17T05:20:59.754Z,5.17
2018-04-17T05:24:05.628Z,5.14
2018-04-17T05:27:11.461Z,5.19
2018-04-17T05:30:17.577Z,5.17
2018-04-17T05:33:23.470Z,5.16
2018-04-17T05:36:29.173Z,5.18
2018-04-17T05:39:34.353Z,5.25
2018-04-17T05:42:39.561Z,5.27
2018-04-17T05:45:45.471Z,5.31
2018-04-17T05:48:50.687Z,5.34
2018-04-17T05:51:56.310Z,5.40
2018-04-17T05:55:02.450Z,5.44
2018-04-17T05:58:07.835Z,5.50
2018-04-17T06:01:14.725Z,5.60
2018-04-17T06:04:20.573Z,5.71
2018-04-17T06:07:25.495Z,5.80
2018-04-17T06:10:31.608Z,5.86
2018-04-17T06:13:37.213Z,5.91
2018-04-17T06:16:43.457Z,6.00
2018-04-17T06:19:49.569Z,6.07
2018-04-17T06:22:54.785Z,6.15
2018-04-17T06:26:00.935Z,6.23
2018-04-17T06:29:07.216Z,6.32
2018-04-17T06:32:13.333Z,6.39
2018-04-17T06:35:18.969Z,6.48
2018-04-17T06:38:25.102Z,6.56
2018-04-17T06:41:30.309Z,6.64
2018-04-17T06:44:36.454Z,6.72
2018-04-17T06:47:42.338Z,6.79
2018-04-17T06:50:48.400Z,6.87
2018-04-17T06:53:53.606Z,6.94
2018-04-17T06:56:59.730Z,7.03
2018-04-17T07:00:05.015Z,7.11
2018-04-17T07:03:10.260Z,7.18
2018-04-17T07:06:16.894Z,7.26
2018-04-17T07:09:22.517Z,7.35
2018-04-17T07:12:27.714Z,7.41
2018-04-17T07:15:32.929Z,7.50
2018-04-17T07:18:37.794Z,7.57
2018-04-17T07:21:43.005Z,7.67
2018-04-17T07:24:48.633Z,7.75
2018-04-17T07:27:54.037Z,7.84
2018-04-17T07:31:00.073Z,7.93
2018-04-17T07:34:06.218Z,8.01
2018-04-17T07:37:12.119Z,8.11
2018-04-17T07:40:18.143Z,8.19
2018-04-17T07:43:24.265Z,8.28
2018-04-17T07:46:30.161Z,8.36
2018-04-17T07:49:35.357Z,8.45
2018-04-17T07:52:40.570Z,8.53
2018-04-17T07:55:46.745Z,8.62
2018-04-17T07:58:52.500Z,8.71
2018-04-17T08:01:58.639Z,8.80
2018-04-17T08:05:04.777Z,8.88
2018-04-17T08:08:09.988Z,8.98
2018-04-17T08:11:15.831Z,9.07
2018-04-17T08:14:21.464Z,9.17
2018-04-17T08:17:27.357Z,9.27
2018-04-17T08:20:33.272Z,9.37
2018-04-17T08:23:39.381Z,9.47
2018-04-17T08:26:44.589Z,9.57
2018-04-17T08:29:50.552Z,9.68
2018-04-17T08:32:56.477Z,9.78
2018-04-17T08:36:01.690Z,9.90
2018-04-17T08:39:06.321Z,10.02
2018-04-17T08:42:12.461Z,10.13
2018-04-17T08:45:17.880Z,10.25
2018-04-17T08:48:23.598Z,10.35
2018-04-17T08:51:28.804Z,10.45
2018-04-17T08:54:34.010Z,10.54
2018-04-17T08:57:39.213Z,10.68
2018-04-17T09:00:45.387Z,10.78
2018-04-17T09:03:50.772Z,10.89
2018-04-17T09:06:55.893Z,11.01
2018-04-17T09:10:01.849Z,11.10
2018-04-17T09:13:07.997Z,11.20
2018-04-17T09:16:13.734Z,11.30
2018-04-17T09:19:18.946Z,11.39
2018-04-17T09:22:24.149Z,11.52
2018-04-17T09:25:30.121Z,11.63
2018-04-17T09:28:35.877Z,11.75
2018-04-17T09:31:41.097Z,11.83
2018-04-17T09:34:46.302Z,11.91
2018-04-17T09:37:51.929Z,11.98
2018-04-17T09:40:57.581Z,12.09
2018-04-17T09:44:02.558Z,12.21
2018-04-17T09:47:07.781Z,12.32
2018-04-17T09:50:13.037Z,12.37
2018-04-17T09:53:18.915Z,12.45
2018-04-17T09:56:24.285Z,12.56
2018-04-17T09:59:29.261Z,12.62
2018-04-17T10:02:34.196Z,12.69
2018-04-17T10:05:39.921Z,12.77
2018-04-17T10:08:46.021Z,12.87
2018-04-17T10:11:52.177Z,12.93
2018-04-17T10:14:57.389Z,13.01
2018-04-17T10:18:02.603Z,13.01
2018-04-17T10:21:07.513Z,13.05
2018-04-17T10:24:12.734Z,13.07
2018-04-17T10:27:17.705Z,13.07
2018-04-17T10:30:23.357Z,13.07
2018-04-17T10:33:29.086Z,13.13
2018-04-17T10:36:34.297Z,13.17
2018-04-17T10:39:39.559Z,13.15
2018-04-17T10:42:44.928Z,13.19
2018-04-17T10:45:50.280Z,13.21
2018-04-17T10:48:55.492Z,13.20
2018-04-17T10:52:00.719Z,13.27
2018-04-17T10:55:05.689Z,13.28
2018-04-17T10:58:11.659Z,13.23
2018-04-17T11:01:17.482Z,13.21
2018-04-17T11:04:23.344Z,13.20
2018-04-17T11:07:28.742Z,13.24
2018-04-17T11:10:34.150Z,13.28
2018-04-17T11:13:39.381Z,13.28
2018-04-17T11:16:45.608Z,13.28
2018-04-17T11:19:51.743Z,13.26
2018-04-17T11:22:56.953Z,13.31
2018-04-17T11:26:02.161Z,13.39
2018-04-17T11:29:07.428Z,13.37
2018-04-17T11:32:13.708Z,13.36
2018-04-17T11:35:19.541Z,13.40
2018-04-17T11:38:25.658Z,13.43
2018-04-17T11:41:30.895Z,13.49
2018-04-17T11:44:36.124Z,13.50
2018-04-17T11:47:42.997Z,13.52
2018-04-17T11:50:48.812Z,13.56
2018-04-17T11:53:54.489Z,13.63
2018-04-17T11:57:00.105Z,13.68
2018-04-17T12:00:06.145Z,13.71
2018-04-17T12:03:11.754Z,13.76
2018-04-17T12:06:17.336Z,13.84
2018-04-17T12:09:22.545Z,13.88
2018-04-17T12:12:27.964Z,13.94
2018-04-17T12:15:33.668Z,14.00
2018-04-17T12:18:39.762Z,14.07
2018-04-17T12:21:45.792Z,14.15
2018-04-17T12:24:51.723Z,14.22
2018-04-17T12:27:56.941Z,14.25
2018-04-17T12:31:03.071Z,14.30
2018-04-17T12:34:08.983Z,14.37
2018-04-17T12:37:14.997Z,14.40
2018-04-17T12:40:21.109Z,14.50
2018-04-17T12:43:26.357Z,14.58
2018-04-17T12:46:32.906Z,14.71
2018-04-17T12:49:38.534Z,14.75
2018-04-17T12:52:44.549Z,14.84
2018-04-17T12:55:50.709Z,14.92
2018-04-17T12:58:55.926Z,15.01
2018-04-17T13:02:01.141Z,15.08
2018-04-17T13:05:06.017Z,15.15
2018-04-17T13:08:11.750Z,15.26
2018-04-17T13:11:16.951Z,15.31
2018-04-17T13:14:22.170Z,15.38
2018-04-17T13:17:28.293Z,15.43
2018-04-17T13:20:34.125Z,15.56
2018-04-17T13:23:40.280Z,15.60
2018-04-17T13:26:46.339Z,15.67
2018-04-17T13:29:51.567Z,15.72
2018-04-17T13:32:56.760Z,15.83
2018-04-17T13:36:01.987Z,15.93
2018-04-17T13:39:06.345Z,15.99
2018-04-17T13:42:11.703Z,16.04
2018-04-17T13:45:17.618Z,16.13
2018-04-17T13:48:23.197Z,16.20
2018-04-17T13:51:30.252Z,16.29
2018-04-17T13:54:36.077Z,16.34
2018-04-17T13:57:43.001Z,16.39
2018-04-17T14:00:48.853Z,16.41
2018-04-17T14:03:54.864Z,16.49
2018-04-17T14:07:00.797Z,16.56
2018-04-17T14:10:06.736Z,16.55
2018-04-17T14:13:11.955Z,16.58
2018-04-17T14:16:18.070Z,16.64
2018-04-17T14:19:23.710Z,16.68
2018-04-17T14:22:28.921Z,16.77
2018-04-17T14:25:34.367Z,16.79
2018-04-17T14:28:40.577Z,16.87
2018-04-17T14:31:46.690Z,16.92
2018-04-17T14:34:52.516Z,16.95
2018-04-17T14:37:58.537Z,17.04
2018-04-17T14:41:04.134Z,17.07
2018-04-17T14:44:10.469Z,17.12
2018-04-17T14:47:16.517Z,17.14
2018-04-17T14:50:22.554Z,17.17
2018-04-17T14:53:27.752Z,17.19
2018-04-17T14:56:33.594Z,17.19
2018-04-17T14:59:39.213Z,17.21
2018-04-17T15:02:45.263Z,17.24
2018-04-17T15:05:51.210Z,17.26
2018-04-17T15:08:56.193Z,17.27
2018-04-17T15:12:02.407Z,17.28
2018-04-17T15:15:08.253Z,17.30
2018-04-17T15:18:13.506Z,17.31
2018-04-17T15:21:19.633Z,17.34
2018-04-17T15:24:24.985Z,17.37
2018-04-17T15:27:30.224Z,17.40
2018-04-17T15:30:35.425Z,17.42
2018-04-17T15:33:41.483Z,17.43
2018-04-17T15:36:46.705Z,17.44
2018-04-17T15:39:51.936Z,17.37
2018-04-17T15:42:57.140Z,17.34
2018-04-17T15:46:02.959Z,17.30
2018-04-17T15:49:08.198Z,17.28
2018-04-17T15:52:13.966Z,17.23
2018-04-17T15:55:20.073Z,17.23
2018-04-17T15:58:25.693Z,17.19
2018-04-17T16:01:31.545Z,17.16
2018-04-17T16:04:37.479Z,17.13
2018-04-17T16:07:43.502Z,17.14
2018-04-17T16:10:49.652Z,17.11
2018-04-17T16:13:55.793Z,17.11
2018-04-17T16:17:01.724Z,17.07
2018-04-17T16:20:06.375Z,17.09
2018-04-17T16:23:11.991Z,16.99
2018-04-17T16:26:18.021Z,16.95
2018-04-17T16:29:24.025Z,16.91
2018-04-17T16:32:30.171Z,16.86
2018-04-17T16:35:37.217Z,16.87
2018-04-17T16:38:42.446Z,16.81
2018-04-17T16:41:48.179Z,16.73
2018-04-17T16:44:53.854Z,16.67
2018-04-17T16:47:59.664Z,16.62
2018-04-17T16:51:05.705Z,16.55
2018-04-17T16:54:11.846Z,16.48
2018-04-17T16:57:17.669Z,16.42
2018-04-17T17:00:22.880Z,16.37
2018-04-17T17:03:28.592Z,16.35
2018-04-17T17:06:34.497Z,16.33
2018-04-17T17:09:40.552Z,16.28
2018-04-17T17:12:45.761Z,16.24
2018-04-17T17:15:51.882Z,16.22
2018-04-17T17:18:58.041Z,16.17
2018-04-17T17:22:05.086Z,16.14
2018-04-17T17:25:11.230Z,16.08
2018-04-17T17:28:17.357Z,16.02
2018-04-17T17:31:22.576Z,15.97
2018-04-17T17:34:27.789Z,15.91
2018-04-17T17:37:33.002Z,15.85
2018-04-17T17:40:38.617Z,15.80
2018-04-17T17:43:44.514Z,15.74
2018-04-17T17:46:50.235Z,15.69
2018-04-17T17:49:55.205Z,15.63
2018-04-17T17:53:00.414Z,15.55
2018-04-17T17:56:05.635Z,15.48
2018-04-17T17:59:11.031Z,15.41
2018-04-17T18:02:16.243Z,15.35
2018-04-17T18:05:22.375Z,15.27
2018-04-17T18:08:28.941Z,15.20
2018-04-17T18:11:34.156Z,15.13
2018-04-17T18:14:39.773Z,15.06
2018-04-17T18:17:45.680Z,15.00
2018-04-17T18:20:51.596Z,14.92
2018-04-17T18:23:57.640Z,14.86
2018-04-17T18:27:03.672Z,14.80
2018-04-17T18:30:09.799Z,14.75
2018-04-17T18:33:15.734Z,14.71
2018-04-17T18:36:20.975Z,14.64
2018-04-17T18:39:27.047Z,14.59
2018-04-17T18:42:33.182Z,14.53
2018-04-17T18:45:39.353Z,14.48
2018-04-17T18:48:45.382Z,14.43
2018-04-17T18:51:51.514Z,14.37
2018-04-17T18:54:57.637Z,14.32
2018-04-17T18:58:03.764Z,14.27
2018-04-17T19:01:10.002Z,14.22
2018-04-17T19:04:15.546Z,14.18
2018-04-17T19:07:20.547Z,14.13
2018-04-17T19:10:25.517Z,14.08
2018-04-17T19:13:31.166Z,14.03
2018-04-17T19:16:37.682Z,13.98
2018-04-17T19:19:42.661Z,13.93
2018-04-17T19:22:48.398Z,13.89
2018-04-17T19:25:54.534Z,13.84
2018-04-17T19:28:59.737Z,13.79
2018-04-17T19:32:04.953Z,13.75
2018-04-17T19:35:10.162Z,13.71
2018-04-17T19:38:15.391Z,13.66
2018-04-17T19:41:20.367Z,13.63
2018-04-17T19:44:25.782Z,13.59
2018-04-17T19:47:30.992Z,13.55
2018-04-17T19:50:37.042Z,13.49
2018-04-17T19:53:43.178Z,13.45
2018-04-17T19:56:49.119Z,13.40
2018-04-17T19:59:55.892Z,13.35
2018-04-17T20:03:01.957Z,13.30
2018-04-17T20:06:08.985Z,13.26
2018-04-17T20:09:14.593Z,13.21
2018-04-17T20:12:20.739Z,13.16
2018-04-17T20:15:26.557Z,13.12
2018-04-17T20:18:32.700Z,13.07
2018-04-17T20:21:38.822Z,13.02
2018-04-17T20:24:44.045Z,12.97
2018-04-17T20:27:49.879Z,12.93
2018-04-17T20:30:55.506Z,12.89
2018-04-17T20:34:01.639Z,12.84
2018-04-17T20:37:07.137Z,12.79
2018-04-17T20:40:13.241Z,12.75
2018-04-17T20:43:19.039Z,12.71
2018-04-17T20:46:25.025Z,12.67
2018-04-17T20:49:30.737Z,12.62
2018-04-17T20:52:36.757Z,12.57
2018-04-17T20:55:42.563Z,12.53
2018-04-17T20:58:47.542Z,12.48
2018-04-17T21:01:52.748Z,12.44
2018-04-17T21:04:57.953Z,12.41
2018-04-17T21:08:04.822Z,12.36
2018-04-17T21:11:10.145Z,12.31
2018-04-17T21:14:15.352Z,12.26
2018-04-17T21:17:22.207Z,12.21
2018-04-17T21:20:28.030Z,12.14
2018-04-17T21:23:33.261Z,12.13
2018-04-17T21:26:39.277Z,12.06
2018-04-17T21:29:45.322Z,12.01
2018-04-17T21:32:51.454Z,11.97
2018-04-17T21:35:57.660Z,11.93
2018-04-17T21:39:03.415Z,11.88
2018-04-17T21:42:08.352Z,11.82
2018-04-17T21:45:14.185Z,11.75
2018-04-17T21:48:19.384Z,11.69
2018-04-17T21:51:24.627Z,11.60
2018-04-17T21:54:29.828Z,11.56
2018-04-17T21:57:36.000Z,11.48
2018-04-17T22:00:41.240Z,11.40
2018-04-17T22:03:47.354Z,11.32
2018-04-17T22:06:53.176Z,11.30
2018-04-17T22:09:59.314Z,11.23
2018-04-17T22:13:05.221Z,11.20
2018-04-17T22:16:11.334Z,11.11
2018-04-17T22:19:16.538Z,11.08
2018-04-17T22:22:22.463Z,11.01
2018-04-17T22:25:27.457Z,10.94
2018-04-17T22:28:32.690Z,10.86
2018-04-17T22:31:38.444Z,10.78
2018-04-17T22:34:44.596Z,10.73
2018-04-17T22:37:49.781Z,10.67
2018-04-17T22:40:56.417Z,10.61
2018-04-17T22:44:02.005Z,10.59
2018-04-17T22:47:06.711Z,10.55
2018-04-17T22:50:11.746Z,10.47
2018-04-17T22:53:16.700Z,10.45
2018-04-17T22:56:21.677Z,10.41
2018-04-17T22:59:26.866Z,10.37
2018-04-17T23:02:33.014Z,10.35
2018-04-17T23:05:38.950Z,10.28
2018-04-17T23:08:44.158Z,10.23
2018-04-17T23:11:49.933Z,10.26
2018-04-17T23:14:55.964Z,10.23
2018-04-17T23:18:02.002Z,10.24
2018-04-17T23:21:08.802Z,10.24
2018-04-17T23:24:13.384Z,10.20
2018-04-17T23:27:19.317Z,10.15
2018-04-17T23:30:25.446Z,10.10
2018-04-17T23:33:31.409Z,10.12
2018-04-17T23:36:36.635Z,10.06
2018-04-17T23:39:42.787Z,10.01
2018-04-17T23:42:48.606Z,9.99
2018-04-17T23:45:54.629Z,10.00
2018-04-17T23:49:00.560Z,9.95
2018-04-17T23:52:06.250Z,9.94
2018-04-17T23:55:11.201Z,9.84
2018-04-17T23:58:16.407Z,9.83
